aviador You're here:

KARG Decoded Metar

WALNUT RIDGE in AR, USA
Report Time2018-04-26 12:56:00
UTC Time2018-04-26 13:15:09
Flight Rules mvfr MVFR
Wind350° at 09 kt
W.Decomp.*RWY 36: 8.8 kt HW 1.7 kt LCW
RWY 31: 7.0 kt HW 5.7 kt RCW
RWY 04: 5.7 kt HW 7 kt LCW
W.Rank350° ranks 12
Current wind is above 350° avg. (7.4)
Visibility6437 m
Phenomena:Light Rain
Mist
Clouds:Broken 018 Hf
Overcast 024 Hf
Expected CloudBase > 400 ft AGL from Temp-Dew spread
Ceiling1,800 ft
Temp12°C (ISA -2)
Dew Point11°C (94% RH)
AAT9.1°C
QNH1013 hPa
Density Alt157 ft
Elevation272 ft
Report Wrong Elevation
Raw Report
KARG 261256Z AUTO 35009KT 4SM -RA BR BKN018 OVC024 12/11 A2990 RMK
AO2 RAB10 SLP127 P0004 T01220111=

Extra information for KARG:More info

Metar Taf Metar & Taf Last 4 Metars F.Rules Stats Wind Profile Meteogram Temp Stats Airport Information Weather charts Add Link Nearby VenuesMetar ALERT Operation Metar Decoded Social comments

AIRNAV info for KARG